Time;durP1;ratioP1;P1;durP2;ratioP2;P2;SDS_P1;SDS_P2;PMS_P1;PMS_P2;Temp;Humidity;BMP_temperature;BMP_pressure;BME280_temperature;BME280_humidity;BME280_pressure;Samples;Min_cycle;Max_cycle;Signal;HPM_P1;HPM_P2
2021/03/20 00:00:36;;;;;;;7.28;5.20;;;9.50;48.50;;;;;;2063297;28;20042;-59
2021/03/20 00:01:57;;;;;;;6.28;4.78;;;9.40;48.40;;;;;;2051470;28;20031;-60
2021/03/20 00:03:18;;;;;;;5.78;5.10;;;9.50;48.20;;;;;;2062516;28;20030;-59
2021/03/20 00:04:39;;;;;;;6.63;5.22;;;9.40;48.10;;;;;;2060361;28;20038;-60
2021/03/20 00:06:01;;;;;;;6.68;5.57;;;9.40;48.20;;;;;;2065319;28;20071;-59
2021/03/20 00:07:22;;;;;;;7.38;5.85;;;9.40;48.20;;;;;;2066356;28;20045;-59
2021/03/20 00:08:43;;;;;;;6.13;5.53;;;9.40;48.10;;;;;;2061129;28;20111;-59
2021/03/20 00:10:08;;;;;;;7.57;6.13;;;9.40;48.10;;;;;;2065139;28;20031;-59
2021/03/20 00:11:29;;;;;;;8.50;5.70;;;9.40;48.20;;;;;;2065010;28;20057;-59
2021/03/20 00:12:52;;;;;;;6.85;5.70;;;9.30;48.10;;;;;;2066347;28;20049;-60
2021/03/20 00:14:16;;;;;;;5.93;5.43;;;9.30;48.10;;;;;;2065548;28;20120;-59
2021/03/20 00:15:37;;;;;;;7.18;6.40;;;9.30;48.20;;;;;;2063624;28;20117;-59
2021/03/20 00:16:58;;;;;;;6.03;5.47;;;9.30;48.20;;;;;;2068558;28;20034;-60
2021/03/20 00:18:21;;;;;;;7.25;5.40;;;9.30;48.20;;;;;;2066077;28;20346;-59
2021/03/20 00:19:42;;;;;;;6.63;6.03;;;9.30;48.30;;;;;;2065086;28;20030;-59
2021/03/20 00:21:03;;;;;;;6.25;5.65;;;9.20;48.20;;;;;;2064644;28;20030;-59
2021/03/20 00:22:24;;;;;;;6.57;5.97;;;9.20;48.30;;;;;;2064298;28;20031;-63
2021/03/20 00:23:46;;;;;;;8.65;6.47;;;9.20;48.50;;;;;;2065083;28;20026;-59
2021/03/20 00:25:08;;;;;;;7.78;6.55;;;9.20;48.40;;;;;;2068982;28;20026;-59
2021/03/20 00:26:29;;;;;;;8.18;6.60;;;9.20;48.50;;;;;;2057675;28;20473;-59
2021/03/20 00:27:50;;;;;;;6.75;6.15;;;9.20;48.60;;;;;;2066030;28;20034;-59
2021/03/20 00:29:11;;;;;;;10.95;6.60;;;9.20;48.50;;;;;;2064765;28;20030;-59
2021/03/20 00:30:32;;;;;;;8.75;6.82;;;9.10;48.50;;;;;;2064651;28;20035;-59
2021/03/20 00:31:53;;;;;;;6.97;6.38;;;9.10;48.50;;;;;;2062270;28;20034;-59
2021/03/20 00:33:15;;;;;;;6.47;5.88;;;9.10;48.60;;;;;;2064604;28;20397;-59
2021/03/20 00:34:37;;;;;;;7.55;6.82;;;9.10;48.60;;;;;;2059916;28;20042;-59
2021/03/20 00:35:59;;;;;;;7.35;6.65;;;9.10;48.60;;;;;;2072137;28;20065;-59
2021/03/20 00:37:20;;;;;;;7.05;6.35;;;9.00;48.70;;;;;;2070177;28;20046;-59
2021/03/20 00:38:42;;;;;;;7.93;7.00;;;9.00;48.70;;;;;;2060913;28;20026;-59
2021/03/20 00:40:05;;;;;;;7.85;7.05;;;9.00;49.20;;;;;;2067853;28;20049;-59
2021/03/20 00:41:25;;;;;;;7.75;6.45;;;9.00;48.80;;;;;;2068175;28;20073;-59
2021/03/20 00:42:46;;;;;;;7.38;6.50;;;9.00;48.70;;;;;;2060496;28;20050;-59
2021/03/20 00:44:07;;;;;;;8.32;6.85;;;9.00;48.70;;;;;;2064997;28;20034;-60
2021/03/20 00:45:29;;;;;;;7.10;6.25;;;9.00;48.70;;;;;;2065834;28;20042;-60
2021/03/20 00:46:50;;;;;;;7.40;6.70;;;9.00;48.90;;;;;;2061482;28;20027;-59
2021/03/20 00:48:14;;;;;;;7.32;6.45;;;9.00;48.90;;;;;;2066862;28;20038;-59
2021/03/20 00:49:35;;;;;;;7.40;6.80;;;8.90;49.00;;;;;;2059587;28;20077;-59
2021/03/20 00:50:57;;;;;;;7.32;6.63;;;8.90;48.90;;;;;;2064259;28;20041;-59
2021/03/20 00:52:18;;;;;;;7.40;6.70;;;8.90;48.80;;;;;;2070908;28;20088;-59
2021/03/20 00:53:39;;;;;;;6.90;6.20;;;8.90;48.80;;;;;;2067567;28;20038;-59
2021/03/20 00:55:00;;;;;;;7.35;6.65;;;8.90;48.90;;;;;;2064360;28;20031;-59
2021/03/20 00:56:21;;;;;;;7.78;6.90;;;8.90;49.00;;;;;;2063200;28;20085;-59
2021/03/20 00:57:42;;;;;;;7.47;6.68;;;8.90;49.00;;;;;;2065174;28;20052;-59
2021/03/20 00:59:03;;;;;;;7.43;6.72;;;8.90;49.10;;;;;;2065369;28;20520;-59
2021/03/20 01:00:27;;;;;;;7.38;6.70;;;8.80;49.10;;;;;;2063803;28;20039;-60
2021/03/20 01:01:48;;;;;;;7.78;6.97;;;8.80;49.40;;;;;;2065499;28;20042;-58
2021/03/20 01:03:09;;;;;;;7.60;6.85;;;8.80;49.30;;;;;;2064542;28;20018;-58
2021/03/20 01:04:31;;;;;;;7.88;7.07;;;8.90;49.40;;;;;;2057832;28;20110;-59
2021/03/20 01:05:52;;;;;;;7.63;6.90;;;8.80;49.50;;;;;;2064116;28;20125;-59
2021/03/20 01:07:13;;;;;;;8.75;6.90;;;8.80;49.40;;;;;;2064170;28;20082;-58
2021/03/20 01:08:34;;;;;;;7.57;6.85;;;8.80;49.50;;;;;;2058693;28;20031;-58
2021/03/20 01:09:54;;;;;;;7.28;6.38;;;8.80;49.50;;;;;;2064398;28;20038;-58
2021/03/20 01:11:17;;;;;;;7.78;6.40;;;8.80;49.60;;;;;;2065100;28;20052;-58
2021/03/20 01:12:37;;;;;;;8.00;7.00;;;8.80;49.80;;;;;;2059749;28;20406;-59
2021/03/20 01:13:59;;;;;;;8.93;6.65;;;8.90;49.70;;;;;;2064679;28;20034;-59
2021/03/20 01:15:20;;;;;;;6.97;6.28;;;8.90;49.70;;;;;;2064351;28;20022;-59
2021/03/20 01:16:41;;;;;;;7.80;7.00;;;8.80;49.70;;;;;;2059489;28;20061;-60
2021/03/20 01:18:02;;;;;;;6.95;6.30;;;8.90;49.70;;;;;;2069780;28;20436;-60
2021/03/20 01:19:23;;;;;;;7.30;6.68;;;8.90;49.80;;;;;;2067932;28;20038;-59
2021/03/20 01:20:45;;;;;;;7.15;6.50;;;8.90;49.60;;;;;;2062142;28;20033;-60
2021/03/20 01:22:06;;;;;;;7.78;6.97;;;8.80;49.60;;;;;;2066135;28;20353;-59
2021/03/20 01:23:27;;;;;;;7.90;7.10;;;8.90;49.60;;;;;;2070269;28;20069;-59
2021/03/20 01:24:48;;;;;;;8.02;6.75;;;8.80;49.60;;;;;;2064427;28;20042;-60
2021/03/20 01:26:11;;;;;;;7.38;6.60;;;8.80;49.60;;;;;;2063941;28;20105;-61
2021/03/20 01:27:32;;;;;;;8.30;6.95;;;8.80;49.60;;;;;;2065749;28;20460;-60
2021/03/20 01:28:53;;;;;;;8.48;6.45;;;8.80;49.60;;;;;;2069993;28;20172;-60
2021/03/20 01:30:18;;;;;;;7.20;6.50;;;8.80;49.60;;;;;;2065182;28;20039;-59
2021/03/20 01:31:39;;;;;;;6.82;6.18;;;8.80;49.70;;;;;;2061573;28;20046;-60
2021/03/20 01:33:00;;;;;;;7.25;6.63;;;8.80;49.60;;;;;;2071227;28;20065;-60
2021/03/20 01:34:21;;;;;;;7.53;6.82;;;8.80;49.70;;;;;;2071304;28;20049;-60
2021/03/20 01:35:42;;;;;;;7.63;6.82;;;8.70;49.70;;;;;;2058639;28;20097;-59
2021/03/20 01:37:02;;;;;;;8.95;6.97;;;8.70;49.80;;;;;;2063761;28;20042;-60
2021/03/20 01:38:23;;;;;;;7.00;6.40;;;8.70;49.80;;;;;;2063671;28;20038;-59
2021/03/20 01:39:44;;;;;;;7.43;6.72;;;8.70;49.80;;;;;;2067704;28;20033;-60
2021/03/20 01:41:08;;;;;;;7.53;6.63;;;8.70;49.80;;;;;;2067265;28;20065;-59
2021/03/20 01:42:29;;;;;;;8.15;6.57;;;8.70;49.80;;;;;;2071212;28;20030;-59
2021/03/20 01:43:51;;;;;;;7.38;6.47;;;8.70;49.70;;;;;;2066147;28;20042;-59
2021/03/20 01:45:16;;;;;;;7.72;6.57;;;8.70;49.80;;;;;;2065453;28;20042;-59
2021/03/20 01:46:42;;;;;;;6.57;5.97;;;8.70;49.80;;;;;;2057582;28;20276;-59
2021/03/20 01:48:18;;;;;;;7.53;6.28;;;8.70;49.80;;;;;;2066487;28;20109;-58
2021/03/20 01:49:45;;;;;;;7.03;6.38;;;8.70;50.00;;;;;;2064776;28;20046;-58
2021/03/20 01:51:11;;;;;;;7.07;6.38;;;8.70;49.80;;;;;;2064327;28;20050;-59
2021/03/20 01:52:32;;;;;;;7.18;6.45;;;8.70;49.80;;;;;;2065164;28;20058;-58
2021/03/20 01:53:56;;;;;;;6.70;6.07;;;8.60;49.60;;;;;;2071409;28;20143;-58
2021/03/20 01:55:17;;;;;;;7.78;6.22;;;8.60;49.80;;;;;;2063222;28;20042;-59
2021/03/20 01:56:44;;;;;;;6.90;6.30;;;8.60;49.80;;;;;;2058512;28;20030;-60
2021/03/20 01:58:05;;;;;;;6.55;5.85;;;8.60;49.90;;;;;;2064197;28;20377;-58
2021/03/20 01:59:26;;;;;;;7.22;6.47;;;8.60;49.70;;;;;;2060382;28;20071;-58
2021/03/20 02:00:48;;;;;;;7.00;6.30;;;8.60;49.80;;;;;;2064554;28;20030;-60
2021/03/20 02:02:09;;;;;;;6.80;6.15;;;8.60;49.90;;;;;;2064205;28;20034;-58
2021/03/20 02:03:31;;;;;;;7.45;6.40;;;8.50;49.80;;;;;;2063480;28;20058;-58
2021/03/20 02:04:52;;;;;;;7.10;6.18;;;8.50;49.90;;;;;;2064687;28;20331;-58
2021/03/20 02:06:13;;;;;;;6.25;5.70;;;8.50;49.90;;;;;;2064459;28;20053;-58
2021/03/20 02:07:34;;;;;;;6.57;5.97;;;8.50;50.00;;;;;;2062687;28;20097;-60
2021/03/20 02:08:59;;;;;;;6.78;6.15;;;8.50;50.00;;;;;;2065169;28;20027;-59
2021/03/20 02:10:22;;;;;;;7.43;6.40;;;8.50;50.20;;;;;;2063548;28;20041;-58
2021/03/20 02:12:04;;;;;;;7.78;6.18;;;8.50;50.20;;;;;;2064102;28;20038;-59
2021/03/20 02:13:39;;;;;;;7.18;6.47;;;8.50;50.30;;;;;;2061509;28;20378;-59
2021/03/20 02:15:05;;;;;;;6.60;6.00;;;8.50;50.20;;;;;;2061423;28;20046;-59
2021/03/20 02:16:41;;;;;;;7.25;6.55;;;8.50;50.20;;;;;;2063093;28;20038;-59
2021/03/20 02:18:08;;;;;;;8.82;6.57;;;8.50;50.30;;;;;;2064363;28;20053;-59
2021/03/20 02:19:50;;;;;;;7.47;6.63;;;8.40;50.10;;;;;;2063005;28;20061;-59
2021/03/20 02:21:15;;;;;;;7.70;6.55;;;8.40;50.10;;;;;;2063063;28;20446;-59
2021/03/20 02:23:14;;;;;;;7.75;6.97;;;8.40;50.00;;;;;;2062703;28;20034;-59
2021/03/20 02:25:00;;;;;;;8.00;6.85;;;8.40;50.30;;;;;;2058121;28;20037;-58
2021/03/20 02:26:58;;;;;;;7.13;6.43;;;8.40;50.20;;;;;;2064295;28;20468;-58
2021/03/20 02:28:53;;;;;;;7.30;6.60;;;8.40;50.30;;;;;;2063902;28;20034;-60
2021/03/20 02:30:35;;;;;;;7.10;6.43;;;8.40;50.20;;;;;;2063153;28;20042;-58
2021/03/20 02:32:18;;;;;;;6.72;6.05;;;8.40;49.90;;;;;;2062641;28;20108;-59
2021/03/20 02:33:48;;;;;;;7.22;6.53;;;8.30;49.90;;;;;;2061527;28;20038;-58
2021/03/20 02:35:26;;;;;;;6.75;6.15;;;8.30;50.10;;;;;;2065272;28;20030;-59
2021/03/20 02:37:13;;;;;;;8.95;7.10;;;8.30;50.20;;;;;;2060228;28;20038;-59
2021/03/20 02:38:41;;;;;;;7.50;6.80;;;8.30;50.40;;;;;;2057445;28;20039;-59
2021/03/20 02:40:20;;;;;;;7.60;6.82;;;8.30;50.30;;;;;;2063505;28;20117;-59
2021/03/20 02:41:55;;;;;;;7.43;6.80;;;8.30;50.40;;;;;;2059019;28;20038;-59
2021/03/20 02:43:28;;;;;;;7.38;6.68;;;8.20;50.20;;;;;;2063862;28;20038;-59
2021/03/20 02:44:59;;;;;;;7.93;7.10;;;8.20;50.20;;;;;;2059351;28;20477;-59
2021/03/20 02:46:37;;;;;;;8.25;7.18;;;8.20;50.30;;;;;;2071421;28;20056;-59
2021/03/20 02:48:13;;;;;;;8.40;7.43;;;8.20;50.50;;;;;;2067055;28;20031;-59
2021/03/20 02:49:42;;;;;;;9.13;7.50;;;8.20;50.40;;;;;;2057326;28;20031;-59
2021/03/20 02:51:22;;;;;;;9.00;7.65;;;8.20;50.40;;;;;;2064562;28;20042;-59
2021/03/20 02:53:02;;;;;;;8.38;7.38;;;8.20;50.30;;;;;;2054404;28;20047;-59
2021/03/20 02:54:40;;;;;;;8.50;7.38;;;8.20;50.60;;;;;;2062738;28;20034;-60
2021/03/20 02:56:03;;;;;;;8.82;7.93;;;8.10;50.60;;;;;;2055915;28;20030;-58
2021/03/20 02:57:45;;;;;;;8.73;7.78;;;8.10;50.40;;;;;;2062384;28;20046;-58
2021/03/20 02:59:11;;;;;;;7.88;7.07;;;8.10;50.70;;;;;;2068477;28;20026;-60
2021/03/20 03:00:39;;;;;;;9.00;7.47;;;8.10;50.60;;;;;;2063211;28;20062;-61
2021/03/20 03:02:04;;;;;;;8.32;7.47;;;8.10;50.60;;;;;;2065803;28;20033;-61
2021/03/20 03:03:29;;;;;;;8.32;7.45;;;8.00;50.60;;;;;;2071860;28;20048;-58
2021/03/20 03:05:00;;;;;;;8.63;7.70;;;8.00;50.70;;;;;;2068230;28;20358;-58
2021/03/20 03:06:37;;;;;;;8.75;7.85;;;8.00;50.90;;;;;;2066067;28;20030;-59
2021/03/20 03:08:07;;;;;;;8.90;7.03;;;8.00;51.20;;;;;;2063976;28;20069;-60
2021/03/20 03:09:38;;;;;;;7.47;6.63;;;8.00;51.00;;;;;;2065031;28;20493;-60
2021/03/20 03:11:12;;;;;;;8.43;7.10;;;8.00;50.90;;;;;;2062373;28;20065;-60
2021/03/20 03:13:15;;;;;;;8.10;7.30;;;7.90;51.00;;;;;;2064634;28;20054;-59
2021/03/20 03:14:40;;;;;;;7.13;6.28;;;7.90;51.10;;;;;;2062107;28;20031;-59
2021/03/20 03:16:11;;;;;;;7.90;7.10;;;7.90;50.70;;;;;;2065723;28;20386;-60
2021/03/20 03:17:34;;;;;;;8.23;6.78;;;7.90;50.80;;;;;;2059635;28;20050;-59
2021/03/20 03:18:58;;;;;;;7.40;6.70;;;7.90;50.70;;;;;;2064404;28;20026;-60
2021/03/20 03:20:27;;;;;;;6.97;6.05;;;7.90;50.80;;;;;;2063662;28;20034;-59
2021/03/20 03:21:51;;;;;;;6.53;5.93;;;7.90;50.80;;;;;;2066539;28;20401;-59
2021/03/20 03:23:16;;;;;;;6.63;6.03;;;7.90;50.80;;;;;;2064477;28;20031;-58
2021/03/20 03:24:41;;;;;;;7.10;6.45;;;7.80;51.00;;;;;;2065684;28;20065;-59
2021/03/20 03:26:24;;;;;;;6.85;5.65;;;7.80;51.00;;;;;;2069554;28;20046;-59
2021/03/20 03:27:49;;;;;;;7.20;6.43;;;7.80;51.00;;;;;;2061422;28;20050;-61
2021/03/20 03:29:14;;;;;;;7.13;5.70;;;7.80;50.80;;;;;;2064983;28;20069;-60
2021/03/20 03:30:35;;;;;;;7.38;6.40;;;7.80;50.90;;;;;;2063466;28;20453;-60
2021/03/20 03:32:22;;;;;;;6.13;5.50;;;7.80;50.80;;;;;;2064685;28;20030;-59
2021/03/20 03:34:05;;;;;;;10.55;6.03;;;7.80;51.00;;;;;;2059896;28;20030;-58
2021/03/20 03:35:36;;;;;;;6.18;5.57;;;7.70;51.20;;;;;;2065270;28;20042;-59
2021/03/20 03:37:00;;;;;;;6.40;5.80;;;7.80;51.00;;;;;;2064154;28;20057;-61
2021/03/20 03:38:43;;;;;;;6.28;5.65;;;7.70;50.90;;;;;;2063903;28;20462;-60
2021/03/20 03:40:47;;;;;;;5.97;5.38;;;7.70;51.10;;;;;;2063889;28;20461;-59
2021/03/20 03:42:14;;;;;;;6.22;5.28;;;7.70;51.20;;;;;;2065931;28;20034;-59
2021/03/20 03:43:35;;;;;;;5.65;5.10;;;7.70;50.70;;;;;;2059475;28;20029;-58
2021/03/20 03:44:56;;;;;;;7.07;5.10;;;7.70;50.60;;;;;;2061461;28;20039;-60
2021/03/20 03:46:23;;;;;;;4.85;4.43;;;7.70;50.60;;;;;;2060721;28;20034;-59
2021/03/20 03:47:44;;;;;;;4.88;4.35;;;7.60;50.50;;;;;;2063693;28;20113;-58
2021/03/20 03:49:09;;;;;;;4.63;4.20;;;7.60;50.40;;;;;;2066261;28;20034;-59
2021/03/20 03:50:34;;;;;;;5.60;4.50;;;7.60;50.40;;;;;;2065273;28;20528;-60
2021/03/20 03:51:55;;;;;;;4.10;3.78;;;7.60;50.40;;;;;;2064931;28;20038;-61
2021/03/20 03:53:22;;;;;;;4.63;3.90;;;7.60;50.40;;;;;;2062380;28;20034;-60
2021/03/20 03:54:43;;;;;;;4.60;4.20;;;7.60;50.60;;;;;;2062389;28;20034;-60
2021/03/20 03:56:30;;;;;;;4.10;3.72;;;7.60;50.50;;;;;;2062454;28;20421;-60
2021/03/20 03:57:58;;;;;;;4.75;3.88;;;7.60;50.70;;;;;;2062342;28;20512;-58
2021/03/20 03:59:54;;;;;;;4.05;3.65;;;7.50;50.60;;;;;;2071693;28;20026;-59
2021/03/20 04:01:27;;;;;;;4.00;3.63;;;7.50;50.50;;;;;;2070099;28;20042;-61
2021/03/20 04:03:26;;;;;;;4.72;3.97;;;7.50;50.30;;;;;;2060193;28;20061;-60
2021/03/20 04:05:10;;;;;;;4.45;3.80;;;7.50;50.40;;;;;;2061963;28;20096;-60
2021/03/20 04:06:48;;;;;;;3.42;3.10;;;7.50;50.20;;;;;;2058877;28;20038;-59
2021/03/20 04:08:12;;;;;;;5.03;3.63;;;7.50;50.00;;;;;;2066702;28;20045;-60
2021/03/20 04:10:14;;;;;;;4.10;3.70;;;7.50;49.80;;;;;;2060204;28;20061;-60
2021/03/20 04:11:44;;;;;;;3.67;3.38;;;7.40;50.00;;;;;;2057697;28;20105;-59
2021/03/20 04:13:08;;;;;;;;;;;7.50;49.80;;;;;;2070700;28;20034;-59
2021/03/20 04:14:41;;;;;;;3.85;3.47;;;7.50;50.00;;;;;;2050318;28;20317;-59
2021/03/20 04:16:14;;;;;;;4.85;4.03;;;7.40;49.70;;;;;;2067040;28;20029;-59
2021/03/20 04:18:04;;;;;;;4.40;4.00;;;7.40;49.60;;;;;;2062091;28;20134;-59
2021/03/20 04:19:29;;;;;;;;;;;7.40;49.80;;;;;;2057069;28;20034;-60
2021/03/20 04:21:09;;;;;;;6.25;4.13;;;7.40;49.80;;;;;;2059011;28;19910;-61
2021/03/20 04:22:52;;;;;;;4.20;3.80;;;7.40;49.70;;;;;;2058536;28;20039;-59
2021/03/20 04:24:20;;;;;;;4.47;4.05;;;7.30;49.80;;;;;;2064904;28;20117;-59
2021/03/20 04:26:21;;;;;;;4.03;3.72;;;7.30;49.70;;;;;;2063396;28;20030;-59
2021/03/20 04:27:47;;;;;;;4.63;3.80;;;7.30;50.00;;;;;;2062006;28;20449;-60
2021/03/20 04:29:26;;;;;;;4.63;3.92;;;7.30;49.80;;;;;;2069233;28;20037;-60
2021/03/20 04:30:52;;;;;;;6.55;4.40;;;7.20;50.00;;;;;;2067514;28;20035;-59
2021/03/20 04:32:27;;;;;;;4.35;3.72;;;7.20;49.90;;;;;;2071336;28;20030;-60
2021/03/20 04:34:16;;;;;;;4.45;3.95;;;7.20;50.10;;;;;;2070815;28;20050;-59
2021/03/20 04:35:59;;;;;;;4.32;3.70;;;7.10;50.20;;;;;;2059379;28;20031;-59
2021/03/20 04:37:25;;;;;;;4.00;3.60;;;7.10;50.20;;;;;;2067624;28;20040;-58
2021/03/20 04:38:47;;;;;;;4.93;3.78;;;7.10;49.90;;;;;;2063867;28;20042;-59
2021/03/20 04:40:19;;;;;;;4.55;3.72;;;7.10;49.90;;;;;;2067269;28;20038;-59
2021/03/20 04:41:41;;;;;;;4.60;4.00;;;7.10;50.20;;;;;;2058957;28;20470;-59
2021/03/20 04:43:03;;;;;;;5.97;4.03;;;7.10;50.20;;;;;;2065071;28;20081;-60
2021/03/20 04:44:25;;;;;;;4.38;3.97;;;7.00;50.30;;;;;;2065066;28;20046;-58
2021/03/20 04:46:02;;;;;;;5.57;3.78;;;7.00;50.20;;;;;;2064023;28;20047;-58
2021/03/20 04:47:29;;;;;;;4.13;3.60;;;7.00;50.40;;;;;;2065413;28;20030;-59
2021/03/20 04:49:07;;;;;;;4.68;3.17;;;7.00;50.40;;;;;;2061277;28;20084;-59
2021/03/20 04:50:29;;;;;;;4.38;3.55;;;7.00;50.40;;;;;;2064745;28;20070;-60
2021/03/20 04:52:01;;;;;;;3.92;3.60;;;7.00;50.30;;;;;;2061157;28;20038;-59
2021/03/20 04:53:22;;;;;;;6.75;3.90;;;7.00;50.60;;;;;;2059804;28;20121;-59
2021/03/20 04:54:44;;;;;;;6.45;3.90;;;7.00;50.40;;;;;;2059095;28;20418;-59
2021/03/20 04:56:14;;;;;;;5.88;3.75;;;7.00;50.30;;;;;;2064658;28;20030;-59
2021/03/20 04:57:46;;;;;;;;;;;6.90;50.30;;;;;;2060714;28;20039;-59
2021/03/20 04:59:22;;;;;;;5.85;3.67;;;7.00;50.60;;;;;;2064444;28;19921;-60
2021/03/20 05:00:54;;;;;;;4.13;3.72;;;7.00;50.10;;;;;;2065035;28;20038;-60
2021/03/20 05:02:49;;;;;;;5.22;4.25;;;7.00;50.10;;;;;;2071122;28;20034;-60
2021/03/20 05:04:20;;;;;;;4.45;3.58;;;6.90;50.40;;;;;;2064546;28;20092;-59
2021/03/20 05:06:08;;;;;;;5.63;3.90;;;6.90;50.20;;;;;;2059305;28;20035;-59
2021/03/20 05:07:31;;;;;;;4.53;3.85;;;6.90;50.30;;;;;;2064944;28;20609;-59
2021/03/20 05:08:55;;;;;;;4.28;3.92;;;6.90;50.00;;;;;;2059902;28;20037;-59
2021/03/20 05:10:42;;;;;;;5.30;3.72;;;6.90;50.10;;;;;;2063761;28;20358;-59
2021/03/20 05:12:16;;;;;;;5.70;3.85;;;6.80;50.40;;;;;;2060375;28;20041;-59
2021/03/20 05:13:53;;;;;;;4.22;3.83;;;6.80;50.40;;;;;;2058244;28;20039;-59
2021/03/20 05:15:32;;;;;;;5.85;3.90;;;6.80;50.30;;;;;;2062551;28;20084;-61
2021/03/20 05:17:00;;;;;;;5.22;3.80;;;6.80;50.30;;;;;;2060319;28;20374;-60
2021/03/20 05:18:21;;;;;;;5.25;3.97;;;6.80;50.20;;;;;;2063240;28;20056;-58
2021/03/20 05:19:43;;;;;;;5.10;4.25;;;6.80;50.10;;;;;;2050879;28;20042;-59
2021/03/20 05:21:04;;;;;;;5.63;4.47;;;6.80;50.20;;;;;;2051764;28;20027;-59
2021/03/20 05:22:28;;;;;;;5.20;3.63;;;6.70;50.20;;;;;;2068276;28;20473;-59
2021/03/20 05:23:49;;;;;;;5.28;4.13;;;6.70;50.20;;;;;;2061252;28;20038;-59
2021/03/20 05:25:14;;;;;;;4.70;4.18;;;6.70;50.30;;;;;;2064571;28;20036;-59
2021/03/20 05:26:35;;;;;;;5.50;3.85;;;6.70;50.40;;;;;;2062410;28;20061;-59
2021/03/20 05:27:56;;;;;;;4.15;3.75;;;6.70;50.30;;;;;;2057258;28;20035;-59
2021/03/20 05:29:17;;;;;;;4.28;3.40;;;6.60;50.20;;;;;;2059897;28;20112;-59
2021/03/20 05:30:38;;;;;;;4.72;3.80;;;6.60;50.10;;;;;;2058254;28;20034;-60
2021/03/20 05:32:02;;;;;;;3.78;3.47;;;6.60;50.20;;;;;;2059051;28;20030;-60
2021/03/20 05:33:23;;;;;;;4.28;3.78;;;6.60;50.30;;;;;;2068405;28;20060;-60
2021/03/20 05:34:45;;;;;;;4.30;3.47;;;6.60;50.30;;;;;;2065069;28;20031;-59
2021/03/20 05:36:07;;;;;;;4.30;3.90;;;6.50;50.10;;;;;;2064011;28;20372;-59
2021/03/20 05:37:33;;;;;;;4.35;3.67;;;6.60;50.20;;;;;;2063996;28;20418;-58
2021/03/20 05:38:54;;;;;;;5.45;4.07;;;6.50;50.10;;;;;;2062538;28;20031;-59
2021/03/20 05:40:28;;;;;;;4.72;4.22;;;6.50;50.10;;;;;;2064540;28;20544;-59
2021/03/20 05:42:10;;;;;;;4.32;3.70;;;6.50;50.30;;;;;;2059180;28;20117;-59
2021/03/20 05:43:43;;;;;;;3.35;3.00;;;6.50;50.20;;;;;;2062978;28;20023;-60
2021/03/20 05:45:27;;;;;;;3.72;3.20;;;6.50;50.10;;;;;;2061406;28;20034;-59
2021/03/20 05:46:59;;;;;;;5.75;3.47;;;6.50;50.20;;;;;;2063291;28;20034;-60
2021/03/20 05:48:27;;;;;;;4.00;3.25;;;6.50;50.00;;;;;;2065747;28;20046;-60
2021/03/20 05:50:25;;;;;;;4.93;3.70;;;6.40;50.10;;;;;;2063014;28;20369;-60
2021/03/20 05:52:02;;;;;;;5.53;3.45;;;6.50;50.10;;;;;;2059844;28;20077;-60
2021/03/20 05:53:23;;;;;;;5.95;3.75;;;6.50;50.00;;;;;;2067926;28;20473;-59
2021/03/20 05:55:02;;;;;;;3.75;3.45;;;6.50;49.80;;;;;;2059148;28;20109;-59
2021/03/20 05:56:46;;;;;;;5.78;3.72;;;6.40;49.80;;;;;;2058191;28;20488;-59
2021/03/20 05:58:22;;;;;;;4.70;3.75;;;6.40;49.60;;;;;;2064034;28;20496;-59
2021/03/20 06:00:04;;;;;;;4.63;3.75;;;6.40;49.50;;;;;;2055838;28;20046;-59
2021/03/20 06:02:00;;;;;;;4.57;3.47;;;6.40;49.60;;;;;;2063324;28;20460;-59
2021/03/20 06:03:33;;;;;;;4.32;3.10;;;6.40;49.50;;;;;;2063719;28;20030;-59
2021/03/20 06:05:30;;;;;;;4.57;3.25;;;6.40;49.50;;;;;;2064821;28;20044;-60
2021/03/20 06:07:12;;;;;;;5.53;3.35;;;6.30;49.60;;;;;;2065851;28;20042;-59
2021/03/20 06:08:46;;;;;;;3.40;3.10;;;6.30;49.40;;;;;;2058564;28;20148;-60
2021/03/20 06:10:41;;;;;;;4.28;3.85;;;6.30;49.30;;;;;;2063178;28;20469;-60
2021/03/20 06:12:07;;;;;;;4.65;3.28;;;6.30;49.50;;;;;;2065870;28;20033;-58
2021/03/20 06:13:54;;;;;;;4.78;3.38;;;6.30;49.40;;;;;;2063856;28;20050;-61
2021/03/20 06:15:47;;;;;;;4.25;3.50;;;6.30;49.60;;;;;;2064140;28;20304;-60
2021/03/20 06:17:12;;;;;;;3.53;3.03;;;6.30;49.40;;;;;;2064003;28;20041;-60
2021/03/20 06:18:55;;;;;;;5.05;3.30;;;6.30;49.30;;;;;;2070603;28;20057;-60
2021/03/20 06:20:30;;;;;;;3.50;3.20;;;6.20;49.40;;;;;;2068377;28;20041;-60
2021/03/20 06:22:37;;;;;;;3.88;3.47;;;6.20;49.30;;;;;;2060878;28;20026;-60
2021/03/20 06:24:16;;;;;;;5.90;3.05;;;6.20;49.50;;;;;;2061247;28;20299;-60
2021/03/20 06:25:55;;;;;;;4.60;3.35;;;6.30;49.50;;;;;;2061769;28;20034;-60
2021/03/20 06:27:20;;;;;;;5.38;3.50;;;6.20;49.30;;;;;;2063862;28;20046;-60
2021/03/20 06:28:55;;;;;;;4.97;3.33;;;6.20;49.30;;;;;;2063383;28;20034;-59
2021/03/20 06:30:38;;;;;;;3.63;3.10;;;6.20;49.40;;;;;;2064167;28;20041;-59
2021/03/20 06:32:06;;;;;;;7.00;3.63;;;6.20;49.40;;;;;;2061102;28;20373;-59
2021/03/20 06:33:48;;;;;;;3.88;3.35;;;6.20;49.30;;;;;;2065360;28;20068;-59
2021/03/20 06:35:14;;;;;;;6.68;3.20;;;6.20;49.40;;;;;;2064612;28;20473;-59
2021/03/20 06:36:43;;;;;;;5.00;3.60;;;6.20;49.40;;;;;;2059717;28;20041;-60
2021/03/20 06:38:06;;;;;;;3.33;3.10;;;6.20;49.40;;;;;;2064901;28;20034;-59
2021/03/20 06:39:37;;;;;;;4.25;3.65;;;6.20;49.60;;;;;;2064483;28;20033;-58
2021/03/20 06:41:13;;;;;;;3.97;3.53;;;6.20;49.80;;;;;;2065098;28;20053;-60
2021/03/20 06:42:37;;;;;;;6.30;3.97;;;6.20;49.70;;;;;;2058948;28;20035;-60
2021/03/20 06:44:25;;;;;;;4.85;3.33;;;6.20;49.70;;;;;;2068958;28;20037;-60
2021/03/20 06:45:48;;;;;;;5.55;3.55;;;6.20;49.70;;;;;;2045120;28;20070;-60
2021/03/20 06:47:25;;;;;;;3.88;3.15;;;6.20;49.60;;;;;;2065724;28;20509;-60
2021/03/20 06:48:47;;;;;;;3.97;3.05;;;6.20;49.70;;;;;;2064786;28;20092;-60
2021/03/20 06:50:21;;;;;;;3.92;3.05;;;6.20;49.60;;;;;;2066580;28;20432;-59
2021/03/20 06:51:42;;;;;;;3.60;3.30;;;6.20;49.60;;;;;;2059661;28;20042;-60
2021/03/20 06:53:06;;;;;;;3.83;3.53;;;6.20;49.60;;;;;;2068734;28;20080;-61
2021/03/20 06:54:28;;;;;;;4.57;3.20;;;6.20;49.70;;;;;;2065208;28;20335;-60
2021/03/20 06:55:51;;;;;;;4.25;3.47;;;6.20;49.60;;;;;;2051766;28;20134;-58
2021/03/20 06:57:12;;;;;;;3.45;3.15;;;6.20;49.70;;;;;;2062690;28;20524;-57
2021/03/20 06:58:35;;;;;;;3.70;2.97;;;6.20;49.80;;;;;;2065948;28;20034;-60
2021/03/20 07:00:00;;;;;;;3.17;2.88;;;6.20;49.80;;;;;;2065569;28;20044;-60
2021/03/20 07:01:36;;;;;;;3.47;3.22;;;6.20;49.80;;;;;;2063451;28;20069;-60
2021/03/20 07:03:32;;;;;;;4.20;3.42;;;6.20;49.90;;;;;;2062906;28;20042;-60
2021/03/20 07:05:16;;;;;;;3.55;3.25;;;6.20;50.00;;;;;;2062155;28;20113;-60
2021/03/20 07:07:21;;;;;;;4.03;3.28;;;6.20;50.00;;;;;;2066307;28;20133;-60
2021/03/20 07:08:52;;;;;;;7.30;3.05;;;6.20;49.90;;;;;;2042801;28;20122;-61
2021/03/20 07:10:24;;;;;;;4.35;2.97;;;6.30;49.80;;;;;;2064701;28;20046;-60
2021/03/20 07:12:17;;;;;;;2.90;2.70;;;6.30;49.80;;;;;;2063601;28;20817;-60
2021/03/20 07:13:49;;;;;;;3.80;2.95;;;6.30;49.70;;;;;;2065647;28;20354;-60
2021/03/20 07:15:19;;;;;;;7.68;3.75;;;6.30;49.60;;;;;;2063653;28;20660;-59
2021/03/20 07:16:53;;;;;;;4.05;3.25;;;6.30;49.70;;;;;;2063001;28;20077;-60
2021/03/20 07:18:26;;;;;;;3.78;3.33;;;6.30;49.60;;;;;;2065541;28;20449;-60
2021/03/20 07:19:59;;;;;;;5.28;3.10;;;6.30;49.60;;;;;;2062530;28;20061;-59
2021/03/20 07:21:26;;;;;;;3.45;3.15;;;6.40;49.60;;;;;;2063979;28;20076;-59
2021/03/20 07:23:08;;;;;;;3.95;3.42;;;6.40;49.50;;;;;;2064972;28;20026;-60
2021/03/20 07:24:35;;;;;;;3.70;3.35;;;6.40;49.60;;;;;;2056091;28;20443;-59
2021/03/20 07:26:09;;;;;;;3.72;3.28;;;6.40;49.60;;;;;;2059836;28;20077;-59
2021/03/20 07:27:34;;;;;;;5.38;3.70;;;6.40;49.50;;;;;;2071254;28;20091;-59
2021/03/20 07:28:59;;;;;;;3.88;3.35;;;6.40;49.50;;;;;;2069064;28;20023;-59
2021/03/20 07:30:35;;;;;;;5.90;3.53;;;6.50;49.60;;;;;;2071659;28;20037;-59
2021/03/20 07:31:59;;;;;;;7.20;3.30;;;6.50;49.60;;;;;;2065933;28;20034;-58
2021/03/20 07:33:38;;;;;;;3.53;3.22;;;6.50;49.50;;;;;;2067299;28;20034;-60
2021/03/20 07:35:19;;;;;;;4.05;3.30;;;6.50;49.30;;;;;;2063381;28;20033;-61
2021/03/20 07:36:41;;;;;;;4.38;3.25;;;6.50;49.10;;;;;;2065507;28;20034;-61
2021/03/20 07:38:33;;;;;;;6.28;3.30;;;6.50;49.00;;;;;;2065504;28;20122;-59
2021/03/20 07:39:58;;;;;;;4.45;2.90;;;6.50;49.10;;;;;;2062941;28;20335;-61
2021/03/20 07:41:19;;;;;;;4.75;3.67;;;6.60;49.10;;;;;;2065851;28;20497;-61
2021/03/20 07:42:41;;;;;;;5.47;3.70;;;6.60;49.10;;;;;;2065362;28;20026;-60
2021/03/20 07:44:02;;;;;;;4.18;3.58;;;6.60;49.10;;;;;;2064427;28;20031;-59
2021/03/20 07:45:23;;;;;;;6.03;3.50;;;6.60;49.10;;;;;;2070146;28;20038;-59
2021/03/20 07:46:44;;;;;;;3.67;3.35;;;6.60;49.10;;;;;;2063415;28;20121;-59
2021/03/20 07:48:20;;;;;;;4.65;3.08;;;6.60;49.00;;;;;;2069238;28;20034;-59
2021/03/20 07:49:41;;;;;;;3.60;3.30;;;6.60;49.00;;;;;;2066581;28;20030;-58
2021/03/20 07:51:14;;;;;;;4.25;3.28;;;6.70;49.10;;;;;;2068577;28;20037;-60
2021/03/20 07:52:36;;;;;;;5.72;3.55;;;6.70;49.00;;;;;;2060510;28;20063;-60
2021/03/20 07:53:57;;;;;;;6.30;3.80;;;6.70;49.00;;;;;;2065127;28;20067;-59